sensor_id;sensor_type;location;lat;lon;timestamp;P1;durP1;ratioP1;P2;durP2;ratioP2
5702;SDS011;2876;51.738;10.050;2023-11-21T00:00:58;9.10;;;4.97;;
5702;SDS011;2876;51.738;10.050;2023-11-21T00:07:02;12.10;;;4.30;;
5702;SDS011;2876;51.738;10.050;2023-11-21T00:13:05;14.50;;;5.23;;
5702;SDS011;2876;51.738;10.050;2023-11-21T00:19:07;7.63;;;4.80;;
5702;SDS011;2876;51.738;10.050;2023-11-21T00:25:09;11.63;;;5.60;;
5702;SDS011;2876;51.738;10.050;2023-11-21T00:31:11;19.20;;;5.90;;
5702;SDS011;2876;51.738;10.050;2023-11-21T00:37:14;10.43;;;4.90;;
5702;SDS011;2876;51.738;10.050;2023-11-21T00:43:16;10.83;;;5.77;;
5702;SDS011;2876;51.738;10.050;2023-11-21T00:49:17;12.23;;;5.80;;
5702;SDS011;2876;51.738;10.050;2023-11-21T00:55:20;12.27;;;5.57;;
5702;SDS011;2876;51.738;10.050;2023-11-21T01:01:22;12.30;;;6.13;;
5702;SDS011;2876;51.738;10.050;2023-11-21T01:07:25;13.17;;;5.90;;
5702;SDS011;2876;51.738;10.050;2023-11-21T01:13:28;10.53;;;7.10;;
5702;SDS011;2876;51.738;10.050;2023-11-21T01:19:30;7.50;;;5.60;;
5702;SDS011;2876;51.738;10.050;2023-11-21T01:25:33;22.47;;;6.13;;
5702;SDS011;2876;51.738;10.050;2023-11-21T01:31:35;16.10;;;7.03;;
5702;SDS011;2876;51.738;10.050;2023-11-21T01:37:37;11.83;;;7.20;;
5702;SDS011;2876;51.738;10.050;2023-11-21T01:43:40;7.77;;;6.30;;
5702;SDS011;2876;51.738;10.050;2023-11-21T01:49:43;12.67;;;7.40;;
5702;SDS011;2876;51.738;10.050;2023-11-21T01:55:46;12.17;;;6.87;;
5702;SDS011;2876;51.738;10.050;2023-11-21T02:01:48;17.13;;;5.13;;
5702;SDS011;2876;51.738;10.050;2023-11-21T02:07:53;13.00;;;6.97;;
5702;SDS011;2876;51.738;10.050;2023-11-21T02:13:56;5.87;;;5.20;;
5702;SDS011;2876;51.738;10.050;2023-11-21T02:20:02;14.13;;;5.87;;
5702;SDS011;2876;51.738;10.050;2023-11-21T02:26:04;13.27;;;6.90;;
5702;SDS011;2876;51.738;10.050;2023-11-21T02:32:07;10.97;;;6.47;;
5702;SDS011;2876;51.738;10.050;2023-11-21T02:38:12;12.07;;;6.77;;
5702;SDS011;2876;51.738;10.050;2023-11-21T02:44:14;13.40;;;6.30;;
5702;SDS011;2876;51.738;10.050;2023-11-21T02:50:16;9.67;;;6.50;;
5702;SDS011;2876;51.738;10.050;2023-11-21T02:56:21;15.63;;;7.10;;
5702;SDS011;2876;51.738;10.050;2023-11-21T03:02:23;14.53;;;7.63;;
5702;SDS011;2876;51.738;10.050;2023-11-21T03:08:25;20.63;;;7.70;;
5702;SDS011;2876;51.738;10.050;2023-11-21T03:14:27;10.33;;;6.77;;
5702;SDS011;2876;51.738;10.050;2023-11-21T03:20:29;13.57;;;7.60;;
5702;SDS011;2876;51.738;10.050;2023-11-21T03:26:31;12.13;;;8.97;;
5702;SDS011;2876;51.738;10.050;2023-11-21T03:32:33;16.93;;;8.67;;
5702;SDS011;2876;51.738;10.050;2023-11-21T03:38:36;11.03;;;7.37;;
5702;SDS011;2876;51.738;10.050;2023-11-21T03:44:39;16.40;;;7.47;;
5702;SDS011;2876;51.738;10.050;2023-11-21T03:50:41;12.37;;;8.33;;
5702;SDS011;2876;51.738;10.050;2023-11-21T03:56:43;9.60;;;7.07;;
5702;SDS011;2876;51.738;10.050;2023-11-21T04:02:45;14.67;;;9.73;;
5702;SDS011;2876;51.738;10.050;2023-11-21T04:08:47;13.27;;;9.10;;
5702;SDS011;2876;51.738;10.050;2023-11-21T04:14:49;20.40;;;10.10;;
5702;SDS011;2876;51.738;10.050;2023-11-21T04:20:54;24.57;;;10.30;;
5702;SDS011;2876;51.738;10.050;2023-11-21T04:26:56;14.70;;;9.97;;
5702;SDS011;2876;51.738;10.050;2023-11-21T04:32:58;16.13;;;8.50;;
5702;SDS011;2876;51.738;10.050;2023-11-21T04:39:00;11.17;;;8.17;;
5702;SDS011;2876;51.738;10.050;2023-11-21T04:45:03;15.97;;;8.53;;
5702;SDS011;2876;51.738;10.050;2023-11-21T04:51:10;15.63;;;9.40;;
5702;SDS011;2876;51.738;10.050;2023-11-21T04:57:15;14.90;;;9.00;;
5702;SDS011;2876;51.738;10.050;2023-11-21T05:03:19;15.93;;;7.70;;
5702;SDS011;2876;51.738;10.050;2023-11-21T05:09:22;11.50;;;8.47;;
5702;SDS011;2876;51.738;10.050;2023-11-21T05:15:24;18.40;;;7.77;;
5702;SDS011;2876;51.738;10.050;2023-11-21T05:21:29;13.33;;;7.60;;
5702;SDS011;2876;51.738;10.050;2023-11-21T05:27:33;11.80;;;8.10;;
5702;SDS011;2876;51.738;10.050;2023-11-21T05:33:36;12.73;;;7.90;;
5702;SDS011;2876;51.738;10.050;2023-11-21T05:39:38;13.43;;;8.47;;
5702;SDS011;2876;51.738;10.050;2023-11-21T05:45:40;16.70;;;9.07;;
5702;SDS011;2876;51.738;10.050;2023-11-21T05:51:42;24.10;;;8.50;;
5702;SDS011;2876;51.738;10.050;2023-11-21T05:57:44;15.30;;;8.57;;
5702;SDS011;2876;51.738;10.050;2023-11-21T06:03:47;22.20;;;9.87;;
5702;SDS011;2876;51.738;10.050;2023-11-21T06:09:49;16.37;;;8.73;;
5702;SDS011;2876;51.738;10.050;2023-11-21T06:15:51;15.43;;;8.20;;
5702;SDS011;2876;51.738;10.050;2023-11-21T06:21:53;14.23;;;8.87;;
5702;SDS011;2876;51.738;10.050;2023-11-21T06:27:55;16.90;;;9.20;;
5702;SDS011;2876;51.738;10.050;2023-11-21T06:33:57;25.37;;;9.53;;
5702;SDS011;2876;51.738;10.050;2023-11-21T06:40:01;16.70;;;9.00;;
5702;SDS011;2876;51.738;10.050;2023-11-21T06:46:05;19.83;;;10.40;;
5702;SDS011;2876;51.738;10.050;2023-11-21T06:52:07;17.80;;;10.70;;
5702;SDS011;2876;51.738;10.050;2023-11-21T06:58:09;22.40;;;10.57;;
5702;SDS011;2876;51.738;10.050;2023-11-21T07:04:11;23.07;;;11.60;;
5702;SDS011;2876;51.738;10.050;2023-11-21T07:10:13;22.37;;;11.83;;
5702;SDS011;2876;51.738;10.050;2023-11-21T07:16:15;20.70;;;12.23;;
5702;SDS011;2876;51.738;10.050;2023-11-21T07:22:17;23.53;;;11.83;;
5702;SDS011;2876;51.738;10.050;2023-11-21T07:28:24;19.30;;;11.87;;
5702;SDS011;2876;51.738;10.050;2023-11-21T07:34:27;21.57;;;12.97;;
5702;SDS011;2876;51.738;10.050;2023-11-21T07:40:29;22.07;;;12.67;;
5702;SDS011;2876;51.738;10.050;2023-11-21T07:46:32;24.17;;;12.93;;
5702;SDS011;2876;51.738;10.050;2023-11-21T07:52:34;26.40;;;12.20;;
5702;SDS011;2876;51.738;10.050;2023-11-21T07:58:36;21.17;;;13.30;;
5702;SDS011;2876;51.738;10.050;2023-11-21T08:04:38;28.63;;;12.30;;
5702;SDS011;2876;51.738;10.050;2023-11-21T08:10:40;28.20;;;13.57;;
5702;SDS011;2876;51.738;10.050;2023-11-21T08:16:43;24.73;;;14.70;;
5702;SDS011;2876;51.738;10.050;2023-11-21T08:22:45;30.37;;;15.90;;
5702;SDS011;2876;51.738;10.050;2023-11-21T08:28:49;36.90;;;15.77;;
5702;SDS011;2876;51.738;10.050;2023-11-21T08:34:53;22.80;;;14.40;;
5702;SDS011;2876;51.738;10.050;2023-11-21T08:40:56;25.87;;;14.93;;
5702;SDS011;2876;51.738;10.050;2023-11-21T08:46:58;23.87;;;14.63;;
5702;SDS011;2876;51.738;10.050;2023-11-21T08:53:00;26.60;;;15.30;;
5702;SDS011;2876;51.738;10.050;2023-11-21T08:59:02;26.10;;;15.83;;
5702;SDS011;2876;51.738;10.050;2023-11-21T09:05:05;26.70;;;14.67;;
5702;SDS011;2876;51.738;10.050;2023-11-21T09:11:08;24.50;;;12.80;;
5702;SDS011;2876;51.738;10.050;2023-11-21T09:17:10;26.10;;;14.97;;
5702;SDS011;2876;51.738;10.050;2023-11-21T09:23:12;21.60;;;12.90;;
5702;SDS011;2876;51.738;10.050;2023-11-21T09:29:15;25.57;;;12.33;;
5702;SDS011;2876;51.738;10.050;2023-11-21T09:35:17;19.97;;;12.20;;
5702;SDS011;2876;51.738;10.050;2023-11-21T09:42:04;19.37;;;10.80;;
5702;SDS011;2876;51.738;10.050;2023-11-21T09:47:50;19.20;;;12.57;;
5702;SDS011;2876;51.738;10.050;2023-11-21T09:53:57;35.10;;;16.00;;
5702;SDS011;2876;51.738;10.050;2023-11-21T10:00:03;20.10;;;12.50;;
5702;SDS011;2876;51.738;10.050;2023-11-21T10:06:06;17.50;;;10.73;;
5702;SDS011;2876;51.738;10.050;2023-11-21T10:12:11;16.20;;;11.57;;
5702;SDS011;2876;51.738;10.050;2023-11-21T10:18:15;21.00;;;13.80;;
5702;SDS011;2876;51.738;10.050;2023-11-21T10:24:18;16.50;;;12.03;;
5702;SDS011;2876;51.738;10.050;2023-11-21T10:30:20;23.90;;;12.93;;
5702;SDS011;2876;51.738;10.050;2023-11-21T10:36:26;24.17;;;12.57;;
5702;SDS011;2876;51.738;10.050;2023-11-21T10:42:29;22.07;;;13.97;;
5702;SDS011;2876;51.738;10.050;2023-11-21T10:48:34;16.13;;;9.60;;
5702;SDS011;2876;51.738;10.050;2023-11-21T10:54:36;13.70;;;4.40;;
5702;SDS011;2876;51.738;10.050;2023-11-21T11:00:39;1.80;;;1.70;;
5702;SDS011;2876;51.738;10.050;2023-11-21T11:06:54;3.10;;;1.80;;
5702;SDS011;2876;51.738;10.050;2023-11-21T11:12:59;1.97;;;1.77;;
5702;SDS011;2876;51.738;10.050;2023-11-21T11:19:02;3.77;;;2.33;;
5702;SDS011;2876;51.738;10.050;2023-11-21T11:31:50;3.20;;;2.80;;
5702;SDS011;2876;51.738;10.050;2023-11-21T11:38:26;4.53;;;4.03;;
5702;SDS011;2876;51.738;10.050;2023-11-21T11:44:55;3.90;;;3.47;;
5702;SDS011;2876;51.738;10.050;2023-11-21T11:51:11;6.27;;;4.27;;
5702;SDS011;2876;51.738;10.050;2023-11-21T11:57:19;7.03;;;5.03;;
5702;SDS011;2876;51.738;10.050;2023-11-21T12:03:25;6.53;;;4.37;;
5702;SDS011;2876;51.738;10.050;2023-11-21T12:09:28;6.20;;;4.60;;
5702;SDS011;2876;51.738;10.050;2023-11-21T12:15:33;7.13;;;5.10;;
5702;SDS011;2876;51.738;10.050;2023-11-21T12:21:36;8.33;;;6.30;;
5702;SDS011;2876;51.738;10.050;2023-11-21T12:27:38;9.27;;;6.17;;
5702;SDS011;2876;51.738;10.050;2023-11-21T12:33:40;10.63;;;6.20;;
5702;SDS011;2876;51.738;10.050;2023-11-21T12:39:42;9.20;;;5.70;;
5702;SDS011;2876;51.738;10.050;2023-11-21T12:45:44;8.33;;;5.47;;
5702;SDS011;2876;51.738;10.050;2023-11-21T12:51:46;6.97;;;5.90;;
5702;SDS011;2876;51.738;10.050;2023-11-21T12:57:52;8.00;;;5.80;;
5702;SDS011;2876;51.738;10.050;2023-11-21T13:03:59;9.50;;;5.53;;
5702;SDS011;2876;51.738;10.050;2023-11-21T13:10:03;8.10;;;6.03;;
5702;SDS011;2876;51.738;10.050;2023-11-21T13:16:08;7.30;;;5.70;;
5702;SDS011;2876;51.738;10.050;2023-11-21T13:22:11;7.97;;;6.20;;
5702;SDS011;2876;51.738;10.050;2023-11-21T13:28:13;6.00;;;4.47;;
5702;SDS011;2876;51.738;10.050;2023-11-21T14:20:22;8.57;;;6.00;;
5702;SDS011;2876;51.738;10.050;2023-11-21T14:26:25;8.40;;;5.13;;
5702;SDS011;2876;51.738;10.050;2023-11-21T14:32:27;6.70;;;5.43;;
5702;SDS011;2876;51.738;10.050;2023-11-21T14:38:29;9.13;;;5.50;;
5702;SDS011;2876;51.738;10.050;2023-11-21T14:44:31;11.23;;;5.03;;
5702;SDS011;2876;51.738;10.050;2023-11-21T14:50:39;7.60;;;4.57;;
5702;SDS011;2876;51.738;10.050;2023-11-21T14:56:41;7.77;;;5.67;;
5702;SDS011;2876;51.738;10.050;2023-11-21T15:02:46;7.27;;;5.20;;
5702;SDS011;2876;51.738;10.050;2023-11-21T15:08:55;5.37;;;4.30;;
5702;SDS011;2876;51.738;10.050;2023-11-21T15:15:18;4.27;;;3.70;;
5702;SDS011;2876;51.738;10.050;2023-11-21T15:21:21;7.77;;;4.93;;
5702;SDS011;2876;51.738;10.050;2023-11-21T15:27:25;4.87;;;4.07;;
5702;SDS011;2876;51.738;10.050;2023-11-21T15:33:28;5.20;;;3.63;;
5702;SDS011;2876;51.738;10.050;2023-11-21T15:39:30;5.70;;;3.87;;
5702;SDS011;2876;51.738;10.050;2023-11-21T15:45:32;6.90;;;3.50;;
5702;SDS011;2876;51.738;10.050;2023-11-21T15:51:34;4.70;;;3.70;;
5702;SDS011;2876;51.738;10.050;2023-11-21T15:57:37;4.20;;;3.10;;
5702;SDS011;2876;51.738;10.050;2023-11-21T16:03:39;5.00;;;3.00;;
5702;SDS011;2876;51.738;10.050;2023-11-21T16:09:41;5.80;;;2.77;;
5702;SDS011;2876;51.738;10.050;2023-11-21T16:15:44;5.57;;;3.30;;
5702;SDS011;2876;51.738;10.050;2023-11-21T16:21:49;3.70;;;3.00;;
5702;SDS011;2876;51.738;10.050;2023-11-21T16:27:51;3.50;;;3.20;;
5702;SDS011;2876;51.738;10.050;2023-11-21T16:33:53;3.30;;;3.00;;
5702;SDS011;2876;51.738;10.050;2023-11-21T16:39:56;4.33;;;3.03;;
5702;SDS011;2876;51.738;10.050;2023-11-21T16:45:59;3.73;;;2.87;;
5702;SDS011;2876;51.738;10.050;2023-11-21T16:52:01;3.20;;;2.63;;
5702;SDS011;2876;51.738;10.050;2023-11-21T16:58:04;3.03;;;2.73;;
5702;SDS011;2876;51.738;10.050;2023-11-21T17:04:06;3.50;;;2.67;;
5702;SDS011;2876;51.738;10.050;2023-11-21T17:10:13;3.97;;;3.20;;
5702;SDS011;2876;51.738;10.050;2023-11-21T17:16:16;4.17;;;3.07;;
5702;SDS011;2876;51.738;10.050;2023-11-21T17:22:18;3.63;;;2.37;;
5702;SDS011;2876;51.738;10.050;2023-11-21T17:28:21;3.07;;;2.77;;
5702;SDS011;2876;51.738;10.050;2023-11-21T17:34:23;4.10;;;2.70;;
5702;SDS011;2876;51.738;10.050;2023-11-21T17:40:25;4.00;;;3.17;;
5702;SDS011;2876;51.738;10.050;2023-11-21T17:46:33;3.53;;;3.03;;
5702;SDS011;2876;51.738;10.050;2023-11-21T17:52:35;3.77;;;2.80;;
5702;SDS011;2876;51.738;10.050;2023-11-21T17:58:39;4.10;;;3.70;;
5702;SDS011;2876;51.738;10.050;2023-11-21T18:04:41;4.70;;;3.67;;
5702;SDS011;2876;51.738;10.050;2023-11-21T18:10:43;5.10;;;3.67;;
5702;SDS011;2876;51.738;10.050;2023-11-21T18:16:46;3.23;;;2.93;;
5702;SDS011;2876;51.738;10.050;2023-11-21T18:22:48;4.80;;;3.50;;
5702;SDS011;2876;51.738;10.050;2023-11-21T18:28:51;4.90;;;2.87;;
5702;SDS011;2876;51.738;10.050;2023-11-21T18:34:53;4.43;;;3.90;;
5702;SDS011;2876;51.738;10.050;2023-11-21T18:40:57;4.53;;;3.57;;
5702;SDS011;2876;51.738;10.050;2023-11-21T18:46:59;5.43;;;4.57;;
5702;SDS011;2876;51.738;10.050;2023-11-21T18:53:01;4.43;;;3.60;;
5702;SDS011;2876;51.738;10.050;2023-11-21T18:59:03;4.60;;;3.30;;
5702;SDS011;2876;51.738;10.050;2023-11-21T19:05:09;4.83;;;3.77;;
5702;SDS011;2876;51.738;10.050;2023-11-21T19:11:12;4.80;;;3.73;;
5702;SDS011;2876;51.738;10.050;2023-11-21T19:17:14;4.57;;;4.03;;
5702;SDS011;2876;51.738;10.050;2023-11-21T19:23:16;6.30;;;3.50;;
5702;SDS011;2876;51.738;10.050;2023-11-21T19:29:19;5.23;;;3.40;;
5702;SDS011;2876;51.738;10.050;2023-11-21T19:35:21;3.97;;;3.57;;
5702;SDS011;2876;51.738;10.050;2023-11-21T19:41:23;4.40;;;3.60;;
5702;SDS011;2876;51.738;10.050;2023-11-21T19:47:26;4.23;;;3.20;;
5702;SDS011;2876;51.738;10.050;2023-11-21T19:53:28;4.60;;;3.40;;
5702;SDS011;2876;51.738;10.050;2023-11-21T19:59:30;5.27;;;3.40;;
5702;SDS011;2876;51.738;10.050;2023-11-21T20:05:34;3.97;;;3.53;;
5702;SDS011;2876;51.738;10.050;2023-11-21T20:11:36;4.70;;;3.83;;
5702;SDS011;2876;51.738;10.050;2023-11-21T20:17:38;4.87;;;4.00;;
5702;SDS011;2876;51.738;10.050;2023-11-21T20:23:44;4.50;;;3.43;;
5702;SDS011;2876;51.738;10.050;2023-11-21T20:29:47;4.50;;;3.30;;
5702;SDS011;2876;51.738;10.050;2023-11-21T20:35:49;7.27;;;3.47;;
5702;SDS011;2876;51.738;10.050;2023-11-21T20:41:52;3.00;;;2.67;;
5702;SDS011;2876;51.738;10.050;2023-11-21T20:47:54;2.90;;;2.53;;
5702;SDS011;2876;51.738;10.050;2023-11-21T20:53:57;53.67;;;16.40;;
5702;SDS011;2876;51.738;10.050;2023-11-21T20:59:59;6.70;;;3.87;;
5702;SDS011;2876;51.738;10.050;2023-11-21T21:06:00;3.70;;;2.90;;
5702;SDS011;2876;51.738;10.050;2023-11-21T21:12:03;4.37;;;3.10;;
5702;SDS011;2876;51.738;10.050;2023-11-21T21:18:06;6.03;;;3.20;;
5702;SDS011;2876;51.738;10.050;2023-11-21T21:24:08;5.53;;;3.27;;
5702;SDS011;2876;51.738;10.050;2023-11-21T21:30:10;2.87;;;2.53;;
5702;SDS011;2876;51.738;10.050;2023-11-21T21:36:13;4.37;;;3.07;;
5702;SDS011;2876;51.738;10.050;2023-11-21T21:42:15;3.27;;;2.57;;
5702;SDS011;2876;51.738;10.050;2023-11-21T21:48:17;3.90;;;3.27;;
5702;SDS011;2876;51.738;10.050;2023-11-21T21:54:19;5.00;;;3.53;;
5702;SDS011;2876;51.738;10.050;2023-11-21T22:00:21;6.00;;;3.53;;
5702;SDS011;2876;51.738;10.050;2023-11-21T22:06:24;7.93;;;2.90;;
5702;SDS011;2876;51.738;10.050;2023-11-21T22:12:26;4.97;;;2.90;;
5702;SDS011;2876;51.738;10.050;2023-11-21T22:18:28;4.43;;;3.23;;
5702;SDS011;2876;51.738;10.050;2023-11-21T22:24:32;3.70;;;2.73;;
5702;SDS011;2876;51.738;10.050;2023-11-21T22:30:35;5.27;;;2.90;;
5702;SDS011;2876;51.738;10.050;2023-11-21T22:36:36;3.80;;;2.77;;
5702;SDS011;2876;51.738;10.050;2023-11-21T22:42:39;3.47;;;2.80;;
5702;SDS011;2876;51.738;10.050;2023-11-21T22:48:42;4.83;;;3.70;;
5702;SDS011;2876;51.738;10.050;2023-11-21T22:54:44;2.80;;;2.50;;
5702;SDS011;2876;51.738;10.050;2023-11-21T23:00:46;3.30;;;2.83;;
5702;SDS011;2876;51.738;10.050;2023-11-21T23:06:48;3.73;;;2.87;;
5702;SDS011;2876;51.738;10.050;2023-11-21T23:12:50;5.40;;;3.00;;
5702;SDS011;2876;51.738;10.050;2023-11-21T23:18:53;3.07;;;2.77;;
5702;SDS011;2876;51.738;10.050;2023-11-21T23:24:55;3.10;;;2.50;;
5702;SDS011;2876;51.738;10.050;2023-11-21T23:30:57;4.10;;;3.00;;
5702;SDS011;2876;51.738;10.050;2023-11-21T23:36:59;4.43;;;2.77;;
5702;SDS011;2876;51.738;10.050;2023-11-21T23:43:01;5.83;;;3.10;;
5702;SDS011;2876;51.738;10.050;2023-11-21T23:49:03;4.33;;;2.97;;
5702;SDS011;2876;51.738;10.050;2023-11-21T23:55:06;3.67;;;2.90;;
